sensor_id;sensor_type;location;lat;lon;timestamp;pressure;altitude;pressure_sealevel;temperature;humidity
47985;BME280;33753;52.912;-7.342;2023-04-05T00:01:12;100693.38;;;8.91;100.00
47985;BME280;33753;52.912;-7.342;2023-04-05T00:03:41;100694.16;;;8.83;100.00
47985;BME280;33753;52.912;-7.342;2023-04-05T00:06:10;100684.88;;;8.86;100.00
47985;BME280;33753;52.912;-7.342;2023-04-05T00:08:42;100681.19;;;8.87;100.00
47985;BME280;33753;52.912;-7.342;2023-04-05T00:11:16;100678.97;;;8.82;100.00
47985;BME280;33753;52.912;-7.342;2023-04-05T00:13:44;100682.03;;;8.87;100.00
47985;BME280;33753;52.912;-7.342;2023-04-05T00:16:12;100672.09;;;8.88;100.00
47985;BME280;33753;52.912;-7.342;2023-04-05T00:18:42;100672.09;;;8.88;100.00
47985;BME280;33753;52.912;-7.342;2023-04-05T00:21:15;100672.09;;;8.88;100.00
47985;BME280;33753;52.912;-7.342;2023-04-05T00:23:43;100665.84;;;8.87;100.00
47985;BME280;33753;52.912;-7.342;2023-04-05T00:26:12;100665.41;;;8.92;100.00
47985;BME280;33753;52.912;-7.342;2023-04-05T00:28:45;100661.00;;;8.91;100.00
47985;BME280;33753;52.912;-7.342;2023-04-05T00:31:14;100660.28;;;8.89;100.00
47985;BME280;33753;52.912;-7.342;2023-04-05T00:33:43;100659.31;;;8.90;100.00
47985;BME280;33753;52.912;-7.342;2023-04-05T00:36:13;100666.41;;;8.91;100.00
47985;BME280;33753;52.912;-7.342;2023-04-05T00:38:42;100668.09;;;8.92;100.00
47985;BME280;33753;52.912;-7.342;2023-04-05T00:41:11;100671.16;;;8.97;100.00
47985;BME280;33753;52.912;-7.342;2023-04-05T00:43:39;100665.78;;;8.97;100.00
47985;BME280;33753;52.912;-7.342;2023-04-05T00:46:08;100665.09;;;8.95;100.00
47985;BME280;33753;52.912;-7.342;2023-04-05T00:48:36;100652.28;;;8.97;100.00
47985;BME280;33753;52.912;-7.342;2023-04-05T00:51:06;100661.25;;;8.97;100.00
47985;BME280;33753;52.912;-7.342;2023-04-05T00:53:37;100657.00;;;8.95;100.00
47985;BME280;33753;52.912;-7.342;2023-04-05T00:56:06;100649.56;;;8.97;100.00
47985;BME280;33753;52.912;-7.342;2023-04-05T00:58:35;100658.38;;;8.99;100.00
47985;BME280;33753;52.912;-7.342;2023-04-05T01:01:14;100643.34;;;8.96;100.00
47985;BME280;33753;52.912;-7.342;2023-04-05T01:03:45;100652.97;;;8.99;100.00
47985;BME280;33753;52.912;-7.342;2023-04-05T01:06:21;100643.88;;;9.00;100.00
47985;BME280;33753;52.912;-7.342;2023-04-05T01:08:54;100645.88;;;8.98;100.00
47985;BME280;33753;52.912;-7.342;2023-04-05T01:11:27;100639.50;;;8.99;100.00
47985;BME280;33753;52.912;-7.342;2023-04-05T01:13:58;100624.97;;;9.00;100.00
47985;BME280;33753;52.912;-7.342;2023-04-05T01:16:27;100625.84;;;9.01;100.00
47985;BME280;33753;52.912;-7.342;2023-04-05T01:18:55;100626.69;;;9.01;100.00
47985;BME280;33753;52.912;-7.342;2023-04-05T01:21:31;100622.28;;;9.00;100.00
47985;BME280;33753;52.912;-7.342;2023-04-05T01:24:12;100624.69;;;9.03;100.00
47985;BME280;33753;52.912;-7.342;2023-04-05T01:26:52;100620.97;;;9.04;100.00
47985;BME280;33753;52.912;-7.342;2023-04-05T01:32:14;100617.59;;;9.02;100.00
47985;BME280;33753;52.912;-7.342;2023-04-05T01:34:46;100615.22;;;8.99;100.00
47985;BME280;33753;52.912;-7.342;2023-04-05T01:37:18;100617.28;;;9.05;100.00
47985;BME280;33753;52.912;-7.342;2023-04-05T01:39:47;100613.91;;;9.03;100.00
47985;BME280;33753;52.912;-7.342;2023-04-05T01:42:19;100617.44;;;9.04;100.00
47985;BME280;33753;52.912;-7.342;2023-04-05T01:44:50;100614.25;;;9.08;100.00
47985;BME280;33753;52.912;-7.342;2023-04-05T01:47:20;100606.00;;;9.10;100.00
47985;BME280;33753;52.912;-7.342;2023-04-05T01:49:48;100611.88;;;9.05;100.00
47985;BME280;33753;52.912;-7.342;2023-04-05T01:52:16;100610.72;;;9.08;100.00
47985;BME280;33753;52.912;-7.342;2023-04-05T01:54:44;100603.22;;;9.02;100.00
47985;BME280;33753;52.912;-7.342;2023-04-05T01:57:12;100601.09;;;9.05;100.00
47985;BME280;33753;52.912;-7.342;2023-04-05T01:59:41;100604.31;;;9.09;100.00
47985;BME280;33753;52.912;-7.342;2023-04-05T02:02:09;100602.31;;;9.11;100.00
47985;BME280;33753;52.912;-7.342;2023-04-05T02:04:39;100591.50;;;9.11;100.00
47985;BME280;33753;52.912;-7.342;2023-04-05T02:07:08;100590.34;;;9.13;100.00
47985;BME280;33753;52.912;-7.342;2023-04-05T02:09:36;100580.56;;;9.12;100.00
47985;BME280;33753;52.912;-7.342;2023-04-05T02:12:04;100578.69;;;9.13;100.00
47985;BME280;33753;52.912;-7.342;2023-04-05T02:14:32;100563.53;;;9.12;100.00
47985;BME280;33753;52.912;-7.342;2023-04-05T02:17:01;100558.47;;;9.17;100.00
47985;BME280;33753;52.912;-7.342;2023-04-05T02:19:29;100565.75;;;9.16;100.00
47985;BME280;33753;52.912;-7.342;2023-04-05T02:22:08;100557.97;;;9.13;100.00
47985;BME280;33753;52.912;-7.342;2023-04-05T02:24:36;100561.00;;;9.19;100.00
47985;BME280;33753;52.912;-7.342;2023-04-05T02:27:04;100558.31;;;9.19;100.00
47985;BME280;33753;52.912;-7.342;2023-04-05T02:29:33;100549.72;;;9.15;100.00
47985;BME280;33753;52.912;-7.342;2023-04-05T02:32:01;100542.28;;;9.17;100.00
47985;BME280;33753;52.912;-7.342;2023-04-05T02:34:29;100541.97;;;9.20;100.00
47985;BME280;33753;52.912;-7.342;2023-04-05T02:36:59;100540.78;;;9.23;100.00
47985;BME280;33753;52.912;-7.342;2023-04-05T02:39:29;100545.88;;;9.26;100.00
47985;BME280;33753;52.912;-7.342;2023-04-05T02:41:57;100539.13;;;9.22;100.00
47985;BME280;33753;52.912;-7.342;2023-04-05T02:44:25;100540.13;;;9.21;100.00
47985;BME280;33753;52.912;-7.342;2023-04-05T02:46:54;100535.22;;;9.24;100.00
47985;BME280;33753;52.912;-7.342;2023-04-05T02:49:28;100536.44;;;9.22;100.00
47985;BME280;33753;52.912;-7.342;2023-04-05T02:51:59;100536.25;;;9.23;100.00
47985;BME280;33753;52.912;-7.342;2023-04-05T02:54:29;100531.69;;;9.24;100.00
47985;BME280;33753;52.912;-7.342;2023-04-05T02:57:00;100529.66;;;9.26;100.00
47985;BME280;33753;52.912;-7.342;2023-04-05T02:59:38;100535.06;;;9.26;100.00
47985;BME280;33753;52.912;-7.342;2023-04-05T03:02:07;100524.59;;;9.23;100.00
47985;BME280;33753;52.912;-7.342;2023-04-05T03:04:35;100526.81;;;9.27;100.00
47985;BME280;33753;52.912;-7.342;2023-04-05T03:07:04;100529.66;;;9.26;100.00
47985;BME280;33753;52.912;-7.342;2023-04-05T03:09:38;100529.66;;;9.26;100.00
47985;BME280;33753;52.912;-7.342;2023-04-05T03:12:09;100524.28;;;9.26;100.00
47985;BME280;33753;52.912;-7.342;2023-04-05T03:14:40;100535.44;;;9.31;100.00
47985;BME280;33753;52.912;-7.342;2023-04-05T03:17:12;100526.13;;;9.25;100.00
47985;BME280;33753;52.912;-7.342;2023-04-05T03:19:44;100525.13;;;9.26;100.00
47985;BME280;33753;52.912;-7.342;2023-04-05T03:22:16;100525.66;;;9.30;100.00
47985;BME280;33753;52.912;-7.342;2023-04-05T03:24:46;100525.66;;;9.30;100.00
47985;BME280;33753;52.912;-7.342;2023-04-05T03:27:16;100528.34;;;9.30;100.00
47985;BME280;33753;52.912;-7.342;2023-04-05T03:30:14;100531.41;;;9.35;100.00
47985;BME280;33753;52.912;-7.342;2023-04-05T03:32:57;100533.94;;;9.37;100.00
47985;BME280;33753;52.912;-7.342;2023-04-05T03:35:40;100522.50;;;9.34;100.00
47985;BME280;33753;52.912;-7.342;2023-04-05T03:38:10;100525.31;;;9.33;100.00
47985;BME280;33753;52.912;-7.342;2023-04-05T03:40:54;100523.66;;;9.32;100.00
47985;BME280;33753;52.912;-7.342;2023-04-05T03:43:23;100523.31;;;9.35;100.00
47985;BME280;33753;52.912;-7.342;2023-04-05T03:45:51;100522.63;;;9.33;100.00
47985;BME280;33753;52.912;-7.342;2023-04-05T03:48:20;100512.53;;;9.35;100.00
47985;BME280;33753;52.912;-7.342;2023-04-05T03:50:49;100521.63;;;9.34;100.00
47985;BME280;33753;52.912;-7.342;2023-04-05T03:53:19;100519.91;;;9.33;100.00
47985;BME280;33753;52.912;-7.342;2023-04-05T03:55:51;100513.34;;;9.36;100.00
47985;BME280;33753;52.912;-7.342;2023-04-05T03:58:45;100510.66;;;9.36;100.00
47985;BME280;33753;52.912;-7.342;2023-04-05T04:01:16;100513.34;;;9.36;100.00
47985;BME280;33753;52.912;-7.342;2023-04-05T04:03:44;100502.72;;;9.34;100.00
47985;BME280;33753;52.912;-7.342;2023-04-05T04:06:13;100508.81;;;9.36;100.00
47985;BME280;33753;52.912;-7.342;2023-04-05T04:08:45;100507.44;;;9.32;100.00
47985;BME280;33753;52.912;-7.342;2023-04-05T04:11:13;100503.44;;;9.36;100.00
47985;BME280;33753;52.912;-7.342;2023-04-05T04:13:41;100495.78;;;9.31;100.00
47985;BME280;33753;52.912;-7.342;2023-04-05T04:16:30;100491.75;;;9.36;100.00
47985;BME280;33753;52.912;-7.342;2023-04-05T04:19:17;100484.19;;;9.39;100.00
47985;BME280;33753;52.912;-7.342;2023-04-05T04:22:05;100488.06;;;9.37;100.00
47985;BME280;33753;52.912;-7.342;2023-04-05T04:25:14;100483.50;;;9.37;100.00
47985;BME280;33753;52.912;-7.342;2023-04-05T04:28:13;100481.81;;;9.36;100.00
47985;BME280;33753;52.912;-7.342;2023-04-05T04:31:17;100479.78;;;9.38;100.00
47985;BME280;33753;52.912;-7.342;2023-04-05T04:34:12;100476.44;;;9.44;100.00
47985;BME280;33753;52.912;-7.342;2023-04-05T04:37:00;100474.94;;;9.42;100.00
47985;BME280;33753;52.912;-7.342;2023-04-05T04:39:55;100473.72;;;9.44;100.00
47985;BME280;33753;52.912;-7.342;2023-04-05T04:42:38;100470.88;;;9.46;100.00
47985;BME280;33753;52.912;-7.342;2023-04-05T04:45:29;100471.91;;;9.45;100.00
47985;BME280;33753;52.912;-7.342;2023-04-05T04:48:24;100461.94;;;9.45;100.00
47985;BME280;33753;52.912;-7.342;2023-04-05T04:51:11;100461.28;;;9.43;100.00
47985;BME280;33753;52.912;-7.342;2023-04-05T04:53:39;100453.16;;;9.43;100.00
47985;BME280;33753;52.912;-7.342;2023-04-05T04:56:08;100457.22;;;9.47;100.00
47985;BME280;33753;52.912;-7.342;2023-04-05T04:58:36;100453.84;;;9.45;100.00
47985;BME280;33753;52.912;-7.342;2023-04-05T05:01:06;100459.75;;;9.49;100.00
47985;BME280;33753;52.912;-7.342;2023-04-05T05:03:36;100454.38;;;9.49;100.00
47985;BME280;33753;52.912;-7.342;2023-04-05T05:06:05;100458.91;;;9.48;100.00
47985;BME280;33753;52.912;-7.342;2023-04-05T05:08:36;100466.53;;;9.53;100.00
47985;BME280;33753;52.912;-7.342;2023-04-05T05:11:05;100454.03;;;9.52;100.00
47985;BME280;33753;52.912;-7.342;2023-04-05T05:13:33;100458.94;;;9.57;100.00
47985;BME280;33753;52.912;-7.342;2023-04-05T05:16:02;100467.38;;;9.54;100.00
47985;BME280;33753;52.912;-7.342;2023-04-05T05:18:31;100459.25;;;9.54;100.00
47985;BME280;33753;52.912;-7.342;2023-04-05T05:20:59;100455.41;;;9.56;100.00
47985;BME280;33753;52.912;-7.342;2023-04-05T05:23:27;100459.28;;;9.62;100.00
47985;BME280;33753;52.912;-7.342;2023-04-05T05:26:00;100453.19;;;9.60;100.00
47985;BME280;33753;52.912;-7.342;2023-04-05T05:28:28;100451.19;;;9.62;100.00
47985;BME280;33753;52.912;-7.342;2023-04-05T05:30:56;100451.50;;;9.67;100.00
47985;BME280;33753;52.912;-7.342;2023-04-05T05:33:24;100451.84;;;9.64;100.00
47985;BME280;33753;52.912;-7.342;2023-04-05T05:35:53;100455.91;;;9.68;100.00
47985;BME280;33753;52.912;-7.342;2023-04-05T05:38:21;100446.13;;;9.67;100.00
47985;BME280;33753;52.912;-7.342;2023-04-05T05:40:53;100456.91;;;9.67;100.00
47985;BME280;33753;52.912;-7.342;2023-04-05T05:43:23;100457.09;;;9.65;100.00
47985;BME280;33753;52.912;-7.342;2023-04-05T05:45:51;100452.22;;;9.69;100.00
47985;BME280;33753;52.912;-7.342;2023-04-05T05:48:19;100453.56;;;9.65;100.00
47985;BME280;33753;52.912;-7.342;2023-04-05T05:50:47;100464.53;;;9.63;100.00
47985;BME280;33753;52.912;-7.342;2023-04-05T05:53:16;100464.03;;;9.68;100.00
47985;BME280;33753;52.912;-7.342;2023-04-05T05:55:44;100464.69;;;9.70;100.00
47985;BME280;33753;52.912;-7.342;2023-04-05T05:58:15;100467.09;;;9.73;100.00
47985;BME280;33753;52.912;-7.342;2023-04-05T06:00:44;100461.00;;;9.79;100.00
47985;BME280;33753;52.912;-7.342;2023-04-05T06:03:16;100462.00;;;9.78;100.00
47985;BME280;33753;52.912;-7.342;2023-04-05T06:05:49;100465.41;;;9.80;100.00
47985;BME280;33753;52.912;-7.342;2023-04-05T06:08:17;100455.25;;;9.82;100.00
47985;BME280;33753;52.912;-7.342;2023-04-05T06:10:45;100456.97;;;9.83;100.00
47985;BME280;33753;52.912;-7.342;2023-04-05T06:13:13;100453.91;;;9.86;100.00
47985;BME280;33753;52.912;-7.342;2023-04-05T06:15:42;100457.63;;;9.85;100.00
47985;BME280;33753;52.912;-7.342;2023-04-05T06:18:11;100451.91;;;9.80;100.00
47985;BME280;33753;52.912;-7.342;2023-04-05T06:20:40;100446.50;;;9.80;100.00
47985;BME280;33753;52.912;-7.342;2023-04-05T06:23:10;100451.56;;;9.83;100.00
47985;BME280;33753;52.912;-7.342;2023-04-05T06:25:38;100444.78;;;9.79;100.00
47985;BME280;33753;52.912;-7.342;2023-04-05T06:28:06;100445.63;;;9.80;100.00
47985;BME280;33753;52.912;-7.342;2023-04-05T06:30:35;100447.00;;;9.84;100.00
47985;BME280;33753;52.912;-7.342;2023-04-05T06:33:03;100437.34;;;9.81;100.00
47985;BME280;33753;52.912;-7.342;2023-04-05T06:35:33;100444.28;;;9.84;100.00
47985;BME280;33753;52.912;-7.342;2023-04-05T06:38:01;100445.81;;;9.86;100.00
47985;BME280;33753;52.912;-7.342;2023-04-05T06:40:29;100442.59;;;9.83;100.00
47985;BME280;33753;52.912;-7.342;2023-04-05T06:42:58;100437.72;;;9.86;100.00
47985;BME280;33753;52.912;-7.342;2023-04-05T06:45:29;100439.25;;;9.89;100.00
47985;BME280;33753;52.912;-7.342;2023-04-05T06:47:57;100441.78;;;9.91;100.00
47985;BME280;33753;52.912;-7.342;2023-04-05T06:50:26;100444.78;;;9.96;100.00
47985;BME280;33753;52.912;-7.342;2023-04-05T06:52:56;100440.25;;;9.96;100.00
47985;BME280;33753;52.912;-7.342;2023-04-05T06:55:24;100442.44;;;10.01;100.00
47985;BME280;33753;52.912;-7.342;2023-04-05T06:57:53;100446.50;;;9.97;100.00
47985;BME280;33753;52.912;-7.342;2023-04-05T07:00:21;100447.19;;;9.99;100.00
47985;BME280;33753;52.912;-7.342;2023-04-05T07:02:49;100438.75;;;10.02;100.00
47985;BME280;33753;52.912;-7.342;2023-04-05T07:05:18;100438.75;;;10.02;100.00
47985;BME280;33753;52.912;-7.342;2023-04-05T07:07:46;100437.56;;;10.05;100.00
47985;BME280;33753;52.912;-7.342;2023-04-05T07:10:15;100436.34;;;10.07;100.00
47985;BME280;33753;52.912;-7.342;2023-04-05T07:12:44;100433.66;;;10.07;100.00
47985;BME280;33753;52.912;-7.342;2023-04-05T07:15:12;100441.94;;;10.14;100.00
47985;BME280;33753;52.912;-7.342;2023-04-05T07:17:40;100447.00;;;10.17;100.00
47985;BME280;33753;52.912;-7.342;2023-04-05T07:20:09;100448.69;;;10.18;100.00
47985;BME280;33753;52.912;-7.342;2023-04-05T07:22:38;100447.19;;;10.15;100.00
47985;BME280;33753;52.912;-7.342;2023-04-05T07:25:06;100451.06;;;10.21;100.00
47985;BME280;33753;52.912;-7.342;2023-04-05T07:27:37;100447.53;;;10.20;100.00
47985;BME280;33753;52.912;-7.342;2023-04-05T07:30:06;100442.47;;;10.17;100.00
47985;BME280;33753;52.912;-7.342;2023-04-05T07:32:35;100436.19;;;10.25;100.00
47985;BME280;33753;52.912;-7.342;2023-04-05T07:35:03;100438.72;;;10.27;100.00
47985;BME280;33753;52.912;-7.342;2023-04-05T07:37:32;100435.69;;;10.30;100.00
47985;BME280;33753;52.912;-7.342;2023-04-05T07:40:00;100437.19;;;10.32;100.00
47985;BME280;33753;52.912;-7.342;2023-04-05T07:42:29;100429.44;;;10.29;100.00
47985;BME280;33753;52.912;-7.342;2023-04-05T07:44:59;100430.63;;;10.27;100.00
47985;BME280;33753;52.912;-7.342;2023-04-05T07:47:27;100433.66;;;10.32;100.00
47985;BME280;33753;52.912;-7.342;2023-04-05T07:49:55;100428.94;;;10.34;100.00
47985;BME280;33753;52.912;-7.342;2023-04-05T07:52:23;100421.53;;;10.36;100.00
47985;BME280;33753;52.912;-7.342;2023-04-05T07:54:51;100425.91;;;10.37;100.00
47985;BME280;33753;52.912;-7.342;2023-04-05T07:57:20;100423.19;;;10.37;100.00
47985;BME280;33753;52.912;-7.342;2023-04-05T07:59:48;100420.84;;;10.42;100.00
47985;BME280;33753;52.912;-7.342;2023-04-05T08:02:20;100421.13;;;10.47;100.00
47985;BME280;33753;52.912;-7.342;2023-04-05T08:04:48;100421.13;;;10.47;100.00
47985;BME280;33753;52.912;-7.342;2023-04-05T08:07:16;100419.28;;;10.56;100.00
47985;BME280;33753;52.912;-7.342;2023-04-05T08:09:44;100425.53;;;10.57;100.00
47985;BME280;33753;52.912;-7.342;2023-04-05T08:12:12;100423.47;;;10.59;100.00
47985;BME280;33753;52.912;-7.342;2023-04-05T08:14:41;100420.28;;;10.63;100.00
47985;BME280;33753;52.912;-7.342;2023-04-05T08:17:09;100417.06;;;10.68;100.00
47985;BME280;33753;52.912;-7.342;2023-04-05T08:19:39;100424.47;;;10.66;100.00
47985;BME280;33753;52.912;-7.342;2023-04-05T08:22:07;100411.28;;;10.71;100.00
47985;BME280;33753;52.912;-7.342;2023-04-05T08:24:35;100417.34;;;10.73;100.00
47985;BME280;33753;52.912;-7.342;2023-04-05T08:27:04;100409.25;;;10.73;100.00
47985;BME280;33753;52.912;-7.342;2023-04-05T08:29:32;100407.03;;;10.85;100.00
47985;BME280;33753;52.912;-7.342;2023-04-05T08:32:00;100410.38;;;10.87;100.00
47985;BME280;33753;52.912;-7.342;2023-04-05T08:34:28;100408.53;;;10.87;100.00
47985;BME280;33753;52.912;-7.342;2023-04-05T08:36:58;100402.25;;;10.95;100.00
47985;BME280;33753;52.912;-7.342;2023-04-05T08:39:27;100409.53;;;10.95;100.00
47985;BME280;33753;52.912;-7.342;2023-04-05T08:41:58;100398.16;;;10.99;100.00
47985;BME280;33753;52.912;-7.342;2023-04-05T08:44:29;100395.66;;;10.98;100.00
47985;BME280;33753;52.912;-7.342;2023-04-05T08:46:58;100387.34;;;10.99;100.00
47985;BME280;33753;52.912;-7.342;2023-04-05T08:49:26;100384.81;;;10.98;100.00
47985;BME280;33753;52.912;-7.342;2023-04-05T08:51:55;100385.66;;;10.98;100.00
47985;BME280;33753;52.912;-7.342;2023-04-05T08:54:24;100379.38;;;11.06;100.00
47985;BME280;33753;52.912;-7.342;2023-04-05T08:56:53;100377.31;;;11.08;100.00
47985;BME280;33753;52.912;-7.342;2023-04-05T08:59:22;100376.59;;;11.14;100.00
47985;BME280;33753;52.912;-7.342;2023-04-05T09:01:51;100372.84;;;11.23;100.00
47985;BME280;33753;52.912;-7.342;2023-04-05T09:04:20;100381.25;;;11.29;100.00
47985;BME280;33753;52.912;-7.342;2023-04-05T09:06:49;100387.16;;;11.32;100.00
47985;BME280;33753;52.912;-7.342;2023-04-05T09:09:19;100386.94;;;11.42;100.00
47985;BME280;33753;52.912;-7.342;2023-04-05T09:11:49;100385.25;;;11.41;100.00
47985;BME280;33753;52.912;-7.342;2023-04-05T09:14:17;100385.91;;;11.43;100.00
47985;BME280;33753;52.912;-7.342;2023-04-05T09:16:46;100382.19;;;11.44;100.00
47985;BME280;33753;52.912;-7.342;2023-04-05T09:19:15;100376.72;;;11.52;100.00
47985;BME280;33753;52.912;-7.342;2023-04-05T09:21:57;100380.56;;;11.58;100.00
47985;BME280;33753;52.912;-7.342;2023-04-05T09:24:30;100375.16;;;11.58;100.00
47985;BME280;33753;52.912;-7.342;2023-04-05T09:27:13;100371.63;;;11.57;100.00
47985;BME280;33753;52.912;-7.342;2023-04-05T09:29:44;100370.53;;;11.67;100.00
47985;BME280;33753;52.912;-7.342;2023-04-05T09:32:15;100364.31;;;11.58;100.00
47985;BME280;33753;52.912;-7.342;2023-04-05T09:34:44;100368.19;;;11.64;100.00
47985;BME280;33753;52.912;-7.342;2023-04-05T09:37:20;100364.97;;;11.60;100.00
47985;BME280;33753;52.912;-7.342;2023-04-05T09:39:49;100362.03;;;11.70;100.00
47985;BME280;33753;52.912;-7.342;2023-04-05T09:42:19;100365.03;;;11.75;100.00
47985;BME280;33753;52.912;-7.342;2023-04-05T09:44:53;100363.94;;;11.84;100.00
47985;BME280;33753;52.912;-7.342;2023-04-05T09:47:22;100359.16;;;11.95;100.00
47985;BME280;33753;52.912;-7.342;2023-04-05T09:49:56;100369.72;;;12.04;100.00
47985;BME280;33753;52.912;-7.342;2023-04-05T09:52:25;100365.72;;;12.15;100.00
47985;BME280;33753;52.912;-7.342;2023-04-05T09:54:55;100363.09;;;12.07;100.00
47985;BME280;33753;52.912;-7.342;2023-04-05T09:57:25;100371.22;;;12.07;100.00
47985;BME280;33753;52.912;-7.342;2023-04-05T09:59:55;100363.84;;;12.01;100.00
47985;BME280;33753;52.912;-7.342;2023-04-05T10:02:23;100360.34;;;11.92;100.00
47985;BME280;33753;52.912;-7.342;2023-04-05T10:04:52;100358.44;;;11.92;100.00
47985;BME280;33753;52.912;-7.342;2023-04-05T10:07:20;100358.44;;;11.92;100.00
47985;BME280;33753;52.912;-7.342;2023-04-05T10:09:49;100360.84;;;11.87;100.00
47985;BME280;33753;52.912;-7.342;2023-04-05T10:12:20;100356.09;;;11.89;100.00
47985;BME280;33753;52.912;-7.342;2023-04-05T10:14:52;100358.16;;;11.87;100.00
47985;BME280;33753;52.912;-7.342;2023-04-05T10:17:22;100359.47;;;11.91;100.00
47985;BME280;33753;52.912;-7.342;2023-04-05T10:19:54;100363.56;;;11.87;100.00
47985;BME280;33753;52.912;-7.342;2023-04-05T10:22:26;100363.56;;;11.87;100.00
47985;BME280;33753;52.912;-7.342;2023-04-05T10:24:56;100362.28;;;11.83;100.00
47985;BME280;33753;52.912;-7.342;2023-04-05T10:27:29;100368.22;;;11.79;100.00
47985;BME280;33753;52.912;-7.342;2023-04-05T10:30:03;100370.09;;;11.78;100.00
47985;BME280;33753;52.912;-7.342;2023-04-05T10:32:34;100364.31;;;11.81;100.00
47985;BME280;33753;52.912;-7.342;2023-04-05T10:35:05;100371.78;;;11.79;100.00
47985;BME280;33753;52.912;-7.342;2023-04-05T10:37:40;100375.44;;;11.86;100.00
47985;BME280;33753;52.912;-7.342;2023-04-05T10:40:09;100369.28;;;11.92;100.00
47985;BME280;33753;52.912;-7.342;2023-04-05T10:42:41;100372.53;;;11.96;100.00
47985;BME280;33753;52.912;-7.342;2023-04-05T10:45:12;100369.81;;;11.96;100.00
47985;BME280;33753;52.912;-7.342;2023-04-05T10:47:46;100375.50;;;12.01;100.00
47985;BME280;33753;52.912;-7.342;2023-04-05T10:50:19;100377.31;;;12.09;100.00
47985;BME280;33753;52.912;-7.342;2023-04-05T10:52:49;100368.75;;;12.20;100.00
47985;BME280;33753;52.912;-7.342;2023-04-05T10:55:18;100374.16;;;12.20;100.00
47985;BME280;33753;52.912;-7.342;2023-04-05T10:57:46;100378.84;;;12.26;100.00
47985;BME280;33753;52.912;-7.342;2023-04-05T11:00:17;100384.66;;;12.38;100.00
47985;BME280;33753;52.912;-7.342;2023-04-05T11:02:46;100376.69;;;12.37;100.00
47985;BME280;33753;52.912;-7.342;2023-04-05T11:05:28;100375.69;;;12.38;100.00
47985;BME280;33753;52.912;-7.342;2023-04-05T11:07:59;100376.63;;;12.45;100.00
47985;BME280;33753;52.912;-7.342;2023-04-05T11:10:27;100373.44;;;12.56;100.00
47985;BME280;33753;52.912;-7.342;2023-04-05T11:13:06;100373.91;;;12.60;100.00
47985;BME280;33753;52.912;-7.342;2023-04-05T11:15:36;100374.38;;;12.64;100.00
47985;BME280;33753;52.912;-7.342;2023-04-05T11:18:08;100374.47;;;12.70;100.00
47985;BME280;33753;52.912;-7.342;2023-04-05T11:20:40;100371.47;;;12.65;100.00
47985;BME280;33753;52.912;-7.342;2023-04-05T11:23:10;100361.47;;;12.66;100.00
47985;BME280;33753;52.912;-7.342;2023-04-05T11:25:39;100358.84;;;12.57;100.00
47985;BME280;33753;52.912;-7.342;2023-04-05T11:28:07;100347.44;;;12.47;100.00
47985;BME280;33753;52.912;-7.342;2023-04-05T11:30:47;100351.25;;;12.53;100.00
47985;BME280;33753;52.912;-7.342;2023-04-05T11:33:35;100349.28;;;12.61;100.00
47985;BME280;33753;52.912;-7.342;2023-04-05T11:36:04;100355.31;;;12.72;100.00
47985;BME280;33753;52.912;-7.342;2023-04-05T11:38:32;100362.00;;;12.76;100.00
47985;BME280;33753;52.912;-7.342;2023-04-05T11:41:04;100351.44;;;12.81;100.00
47985;BME280;33753;52.912;-7.342;2023-04-05T11:43:33;100350.13;;;12.92;100.00
47985;BME280;33753;52.912;-7.342;2023-04-05T11:46:05;100353.97;;;12.98;100.00
47985;BME280;33753;52.912;-7.342;2023-04-05T11:48:34;100369.81;;;13.16;100.00
47985;BME280;33753;52.912;-7.342;2023-04-05T11:51:05;100360.47;;;13.18;100.00
47985;BME280;33753;52.912;-7.342;2023-04-05T11:53:34;100353.63;;;13.07;100.00
47985;BME280;33753;52.912;-7.342;2023-04-05T11:56:06;100341.31;;;13.05;100.00
47985;BME280;33753;52.912;-7.342;2023-04-05T11:58:34;100344.78;;;13.20;100.00
47985;BME280;33753;52.912;-7.342;2023-04-05T12:01:05;100343.38;;;13.24;100.00
47985;BME280;33753;52.912;-7.342;2023-04-05T12:03:33;100338.53;;;13.20;100.00
47985;BME280;33753;52.912;-7.342;2023-04-05T12:06:03;100342.56;;;13.24;100.00
47985;BME280;33753;52.912;-7.342;2023-04-05T12:08:38;100340.94;;;13.29;100.00
47985;BME280;33753;52.912;-7.342;2023-04-05T12:11:08;100333.19;;;13.26;100.00
47985;BME280;33753;52.912;-7.342;2023-04-05T12:13:37;100330.66;;;13.25;100.00
47985;BME280;33753;52.912;-7.342;2023-04-05T12:16:08;100332.41;;;13.32;100.00
47985;BME280;33753;52.912;-7.342;2023-04-05T12:18:36;100337.19;;;13.30;100.00
47985;BME280;33753;52.912;-7.342;2023-04-05T12:21:06;100332.41;;;13.32;100.00
47985;BME280;33753;52.912;-7.342;2023-04-05T12:23:34;100337.03;;;13.17;100.00
47985;BME280;33753;52.912;-7.342;2023-04-05T12:26:05;100335.44;;;13.23;100.00
47985;BME280;33753;52.912;-7.342;2023-04-05T12:28:49;100328.38;;;13.28;100.00
47985;BME280;33753;52.912;-7.342;2023-04-05T12:34:03;100320.25;;;13.28;100.00
47985;BME280;33753;52.912;-7.342;2023-04-05T12:36:32;100325.03;;;13.26;100.00
47985;BME280;33753;52.912;-7.342;2023-04-05T12:39:00;100318.81;;;13.32;100.00
47985;BME280;33753;52.912;-7.342;2023-04-05T12:41:33;100321.44;;;13.41;100.00
47985;BME280;33753;52.912;-7.342;2023-04-05T12:44:04;100315.91;;;13.34;100.00
47985;BME280;33753;52.912;-7.342;2023-04-05T12:46:38;100309.91;;;13.39;100.00
47985;BME280;33753;52.912;-7.342;2023-04-05T12:49:10;100317.94;;;13.47;100.00
47985;BME280;33753;52.912;-7.342;2023-04-05T12:51:42;100305.47;;;13.53;100.00
47985;BME280;33753;52.912;-7.342;2023-04-05T12:54:12;100296.09;;;13.55;100.00
47985;BME280;33753;52.912;-7.342;2023-04-05T12:56:41;100296.16;;;13.62;100.00
47985;BME280;33753;52.912;-7.342;2023-04-05T12:59:09;100292.38;;;13.63;100.00
47985;BME280;33753;52.912;-7.342;2023-04-05T13:01:37;100290.66;;;13.55;100.00